SBFN

Details ICAO SBFN (FEN)
Name Fernando De Noronha
Region Brazil
Timezone America/Noronha (UTC-2.0)
Plans Departing 94
Arriving 103
Stats Elevation 180 ft / 55 m (AMSL)
Location -3.854928° -32.423335°
Runways 1
Magnetic Variation 20.049° W
Sunrise 2017-12-17 07:56:55 UTC / 2017-12-17 05:56:55 Local
Sunset 2017-12-17 20:17:32 UTC / 2017-12-17 18:17:32 Local
Advertisement - Login to hide

Runways

ID Width Length Bearing (true) Bearing (mag) Surface Threshold Offset Overrun Length
12 148 ft / 45 m 6,070 ft / 1,850 m 93.99° 114.04° Asphalt 0 ft / 0 m 0 ft / 0 m
30 148 ft / 45 m 6,070 ft / 1,850 m 273.98° 294.03° Asphalt 0 ft / 0 m 0 ft / 0 m

Map

Weather


0- 5 10 15 20 25 30 35+ Temperature / ° C

Clouds and Precipitation
Forecast for 2017-12-18 00:00 UTC. Updated an hour ago

Ground ~20,000 ft ~40,000 ft Winds

METAR

SBFN 172200Z 12018KT 9999 SCT017 26/22 Q1014

TAF

TAF SBFN 171530Z 1718/1806 12012KT 9999 SCT020 TX29/1718Z TN26/1722Z RMK PEA

Frequencies

Tower 125.90 MHz NORONHA RDO
Warning: Do not use this data for real-world aviation or navigation. No guarantee of current accuracy is given.